• Join FlightAware (Why Join?)
  • Login
  • US Flag 
09:40AM EDT


 

Airport Tracker/Info


-or-


 

Live Flight TrackerFlight Track Log ✈ CSN3614 ✈ 08-Jul-2013 ✈ ZYMD / MDG - ZSPD / PVG

Flight Track Log - Related Links

Times and Time Zones

All times are in EDT time to prevent confusion due to time zone crossing. See the CSN3614 flight status page for this flight to view local times or setup timezone preferences in your user account.

Time Position Orientation Groundspeed Altitude Reporting Facility
EDT Latitude Longitude Course Direction KTS MPH feet Rate Location/Type
05:17AM 44.4313 129.5023 207° Southwest  Level Estimated
05:18AM 44.3384 129.4359 207° Southwest  Level Estimated
05:19AM 44.2455 129.3697 207° Southwest  Level Estimated
05:20AM 44.1526 129.3038 207° Southwest  Level Estimated
05:21AM 44.0596 129.2380 207° Southwest  Level Estimated
05:22AM 43.9666 129.1724 207° Southwest  Level Estimated
05:23AM 43.8736 129.1070 207° Southwest  Level Estimated
05:24AM 43.7805 129.0419 207° Southwest  Level Estimated
05:25AM 43.6874 128.9769 207° Southwest  Level Estimated
05:26AM 43.5942 128.9122 207° Southwest  Level Estimated
05:27AM 43.5010 128.8476 207° Southwest  Level Estimated
05:28AM 43.4078 128.7832 207° Southwest  Level Estimated
05:29AM 43.3145 128.7191 207° Southwest  Level Estimated
05:30AM 43.2212 128.6551 207° Southwest  Level Estimated
05:31AM 43.1279 128.5913 207° Southwest  Level Estimated
05:32AM 43.0345 128.5278 206° Southwest  Level Estimated
05:33AM 42.9411 128.4644 206° Southwest  Level Estimated
05:34AM 42.8477 128.4012 206° Southwest  Level Estimated
05:35AM 42.7542 128.3382 206° Southwest  Level Estimated
05:36AM 42.6607 128.2754 206° Southwest  Level Estimated
05:37AM 42.5672 128.2128 206° Southwest  Level Estimated
05:38AM 42.4736 128.1503 206° Southwest  Level Estimated
05:39AM 42.3800 128.0881 206° Southwest  Level Estimated
05:40AM 42.2863 128.0260 206° Southwest  Level Estimated
05:41AM 42.1927 127.9641 206° Southwest  Level Estimated
05:42AM 42.0989 127.9024 206° Southwest  Level Estimated
05:43AM 42.0052 127.8409 206° Southwest  Level Estimated
05:44AM 41.9114 127.7796 206° Southwest  Level Estimated
05:45AM 41.8176 127.7184 206° Southwest  Level Estimated
05:46AM 41.7238 127.6575 206° Southwest  Level Estimated
05:47AM 41.6299 127.5967 206° Southwest  Level Estimated
05:48AM 41.5360 127.5360 206° Southwest  Level Estimated
05:49AM 41.4421 127.4756 206° Southwest  Level Estimated
05:50AM 41.3481 127.4153 206° Southwest  Level Estimated
05:51AM 41.2541 127.3552 206° Southwest  Level Estimated
05:52AM 41.1601 127.2953 206° Southwest  Level Estimated
05:53AM 41.0660 127.2356 206° Southwest  Level Estimated
05:54AM 40.9719 127.1760 206° Southwest  Level Estimated
05:55AM 40.8778 127.1166 206° Southwest  Level Estimated
05:56AM 40.7836 127.0574 205° Southwest  Level Estimated
05:57AM 40.6895 126.9983 205° Southwest  Level Estimated
05:58AM 40.5952 126.9394 205° Southwest  Level Estimated
05:59AM 40.5010 126.8806 205° Southwest  Level Estimated
06:00AM 40.4067 126.8221 205° Southwest  Level Estimated
06:01AM 40.3124 126.7636 205° Southwest  Level Estimated
06:02AM 40.2181 126.7054 205° Southwest  Level Estimated
06:03AM 40.1237 126.6473 205° Southwest  Level Estimated
06:04AM 40.0294 126.5894 205° Southwest  Level Estimated
06:05AM 39.9349 126.5316 205° Southwest  Level Estimated
06:06AM 39.8405 126.4740 205° Southwest  Level Estimated
06:07AM 39.7460 126.4165 205° Southwest  Level Estimated
06:08AM 39.6515 126.3593 205° Southwest  Level Estimated
06:09AM 39.5570 126.3021 205° Southwest  Level Estimated
06:10AM 39.4624 126.2451 205° Southwest  Level Estimated
06:11AM 39.3678 126.1883 205° Southwest  Level Estimated
06:12AM 39.2732 126.1317 205° Southwest  Level Estimated
06:13AM 39.1786 126.0751 205° Southwest  Level Estimated
06:14AM 39.0839 126.0188 205° Southwest  Level Estimated
06:15AM 38.9892 125.9625 205° Southwest  Level Estimated
06:16AM 38.8945 125.9065 205° Southwest  Level Estimated
06:17AM 38.7997 125.8506 205° Southwest  Level Estimated
06:18AM 38.7049 125.7948 205° Southwest  Level Estimated
06:19AM 38.6101 125.7392 205° Southwest  Level Estimated
06:20AM 38.5153 125.6837 205° Southwest  Level Estimated
06:21AM 38.4204 125.6284 205° Southwest  Level Estimated
06:22AM 38.3256 125.5732 205° Southwest  Level Estimated
06:23AM 38.2307 125.5182 204° Southwest  Level Estimated
06:24AM 38.1357 125.4633 204° Southwest  Level Estimated
06:25AM 38.0408 125.4085 204° Southwest  Level Estimated
06:26AM 37.9458 125.3539 204° Southwest  Level Estimated
06:27AM 37.8508 125.2995 204° Southwest  Level Estimated
06:28AM 37.7557 125.2451 204° Southwest  Level Estimated
06:29AM 37.6607 125.1909 204° Southwest  Level Estimated
06:30AM 37.5656 125.1369 204° Southwest  Level Estimated
06:31AM 37.4705 125.0830 204° Southwest  Level Estimated
06:32AM 37.3753 125.0292 204° Southwest  Level Estimated
06:33AM 37.2802 124.9756 204° Southwest  Level Estimated
06:34AM 37.1850 124.9221 204° Southwest  Level Estimated
06:35AM 37.0898 124.8687 204° Southwest  Level Estimated
06:36AM 36.9946 124.8155 204° Southwest  Level Estimated
06:37AM 36.8993 124.7624 204° Southwest  Level Estimated
06:38AM 36.8040 124.7094 204° Southwest  Level Estimated
06:39AM 36.7087 124.6565 204° Southwest  Level Estimated
06:40AM 36.6134 124.6038 204° Southwest  Level Estimated
06:41AM 36.5181 124.5513 204° Southwest  Level Estimated
06:42AM 36.4227 124.4988 204° Southwest  Level Estimated
06:43AM 36.3273 124.4465 204° Southwest  Level Estimated
06:44AM 36.2319 124.3943 204° Southwest  Level Estimated
06:45AM 36.1364 124.3422 204° Southwest  Level Estimated
06:46AM 36.0410 124.2903 204° Southwest  Level Estimated
06:47AM 35.9455 124.2385 204° Southwest  Level Estimated
06:48AM 35.8500 124.1868 204° Southwest  Level Estimated
06:49AM 35.7545 124.1352 204° Southwest  Level Estimated
06:50AM 35.6589 124.0838 204° Southwest  Level Estimated
06:51AM 35.5633 124.0325 204° Southwest  Level Estimated
06:52AM 35.4678 123.9813 204° Southwest  Level Estimated
06:53AM 35.3721 123.9302 204° Southwest  Level Estimated
06:54AM 35.2765 123.8793 204° Southwest  Level Estimated
06:55AM 35.1808 123.8285 203° Southwest  Level Estimated
06:56AM 35.0852 123.7777 203° Southwest  Level Estimated
06:57AM 34.9895 123.7272 203° Southwest  Level Estimated
06:58AM 34.8937 123.6767 203° Southwest  Level Estimated
06:59AM 34.7980 123.6263 203° Southwest  Level Estimated
07:00AM 34.7022 123.5761 203° Southwest  Level Estimated
07:01AM 34.6065 123.5260 203° Southwest  Level Estimated
07:02AM 34.5107 123.4760 203° Southwest  Level Estimated
07:03AM 34.4148 123.4261 203° Southwest  Level Estimated
07:04AM 34.3190 123.3763 203° Southwest  Level Estimated
07:05AM 34.2231 123.3266 203° Southwest  Level Estimated
07:06AM 34.1273 123.2771 203° Southwest  Level Estimated
07:07AM 34.0314 123.2277 203° Southwest  Level Estimated
07:08AM 33.9354 123.1783 203° Southwest  Level Estimated
07:09AM 33.8395 123.1291 203° Southwest  Level Estimated
07:10AM 33.7435 123.0800 203° Southwest  Level Estimated
07:11AM 33.6476 123.0310 203° Southwest  Level Estimated
07:12AM 33.5516 122.9821 203° Southwest  Level Estimated
07:13AM 33.4555 122.9333 203° Southwest  Level Estimated
07:14AM 33.3595 122.8847 203° Southwest  Level Estimated
07:15AM 33.2634 122.8361 203° Southwest  Level Estimated
07:15AM 32.7660 122.1100 203° Southwest 471 542 30,100  Level FlightAware
07:16AM 33.1674 122.7876 203° Southwest  Level Estimated
07:16AM 32.6480 122.1680 158° South 471 542 30,100  Level FlightAware
07:17AM 32.4410 122.2650 158° South 470 541 26,700 -1,560 Descending FlightAware
07:18AM 32.3610 122.3050 157° South 470 541 26,400 -1,980 Descending FlightAware
07:19AM 32.2660 122.3490 159° South 431 496 23,800 -2,700 Descending FlightAware
07:20AM 32.1640 122.3970 158° South 413 475 22,100 -1,740 Descending FlightAware
07:21AM 32.0660 122.4430 158° South 419 482 20,700 -900 Descending FlightAware
07:21AM 31.9960 122.4760 158° South 418 481 20,700  Level FlightAware
07:22AM 31.9160 122.5130 159° South 415 478 20,700  Level FlightAware
07:23AM 31.8320 122.5530 158° South 415 478 20,700 -600 Level FlightAware
07:24AM 31.7660 122.5840 158° South 414 476 19,900 -1,500 Descending FlightAware
07:25AM 31.6000 122.5810 181° South 409 471 17,400 -1,140 Descending FlightAware
07:26AM 31.5330 122.5940 171° South 409 471 17,400  Level FlightAware
07:27AM 31.4570 122.6080 171° South 409 471 17,400  Level FlightAware
07:27AM 31.4000 122.6180 171° South 409 471 17,400  Level FlightAware
07:28AM 31.3240 122.6330 170° South 409 471 17,400  Level FlightAware
07:29AM 31.2650 122.6430 172° South 409 471 17,400 -4,020 Level FlightAware
07:30AM 31.4060 122.1210 288° West 7,500 -5,100 Descending FlightAware
07:31AM 31.3950 122.0370 261° West 269 310 5,300 -1,560 Descending FlightAware
07:32AM 31.3910 122.0050 262° West 269 310 5,300 -1,620 Level FlightAware
07:32AM 31.3950 121.9370 274° West 244 281 3,400 -1,920 Descending FlightAware
07:33AM 31.4040 121.9050 288° West 228 262 3,100 -600 Descending FlightAware
07:33AM 31.4100 121.8790 285° West 212 244 2,900 -420 Descending FlightAware
07:34AM 31.4150 121.8330 277° West 185 213 2,700 -300 Descending FlightAware
07:34AM 31.4140 121.8130 267° West 179 206 2,600 -480 Descending FlightAware
07:35AM 31.4120 121.7690 267° West 168 193 2,200 -420 Descending FlightAware
07:35AM 31.4060 121.7610 229° Southwest 167 192 2,200  Level FlightAware
07:35AM 31.3950 121.7530 212° Southwest 159 183 2,200  Level FlightAware
07:36AM 31.3770 121.7440 203° Southwest 159 183 2,200  Level FlightAware
07:36AM 31.3580 121.7390 193° South 162 186 2,200  Level FlightAware
07:37AM 31.3350 121.7450 167° South 167 192 2,200  Level FlightAware
07:37AM 31.3170 121.7520 162° South 167 192 2,200  Level FlightAware
07:38AM 31.2960 121.7600 162° South 167 192 2,200  Level FlightAware
07:38AM 31.2760 121.7670 163° South 168 193 2,200  Level FlightAware
07:38AM 31.2610 121.7730 161° South 156 180 2,200 -480 Level FlightAware
07:39AM 31.2480 121.7780 162° South 136 157 1,900 -780 Descending FlightAware
07:39AM 31.2290 121.7850 163° South 133 153 1,600 -720 Descending FlightAware
07:40AM 31.2110 121.7920 162° South 133 153 1,200 -480 Descending FlightAware
07:40AM 31.1980 121.7970 162° South 133 153 1,200 -540 Level FlightAware
07:41AM 31.1800 121.8040 162° South 133 153 700 -540 Descending FlightAware
07:41AM 31.1670 121.8090 162° South 133 153 700  Level FlightAware
07:44AM 31.1428 121.7924 210° Southwest  Level Estimated
07:45AM 31.1428 121.7924 221° Southwest  Level Estimated
07:46AM 31.1428 121.7924 221° Southwest  Level Estimated
07:47AM 31.1428 121.7924 221° Southwest  Level Estimated
07:48AM 31.1428 121.7924 221° Southwest  Level Estimated
07:49AM 31.1428 121.7924 221° Southwest  Level Estimated
07:50AM 31.1428 121.7924 221° Southwest  Level Estimated
07:51AM 31.1428 121.7924 221° Southwest  Level Estimated
07:52AM 31.1428 121.7924 221° Southwest  Level Estimated